Main page
METAR-TAF:

METAR-TAF

Airports :

Fillmore County Airport

Preston, Minnesota, United States

latitude: 43-40-36N, longitude: 092-10-47W, elevation: 1276 ft

Current weather observation

The report was made 27 minutes ago, at 22:55 UTC
Wind 14 mph from the South/Southwest with gusts up to 29 mph
Temperature 57°F
Humidity 63%
Pressure 29.70 in. Hg
Visibility: 8 miles
light rain

METAR: KFKA 222255Z AUTO 20012G25KT 8SM -RA 14/07 A2970 RMK AO2

Time: 18:22 (23:22 UTC)


TAF: missing

Weather observations and forecasts of more than 4000 airports (METAR and TAF reports).

The available stations are represented by yellow and red dots on the map.

Hover mouse over dot to see the name of the station.

Then click to see weather observations and forecasts.

To change the map : click on the green buttons with a black cross to zoom in, on the green button with a dash to zoom out, or on the green arrows for adjacent maps.


METAR-TAF: